Flight Track Log - Related Links

Times and Time Zones

All times are in EDT time to prevent confusion due to time zone crossing. See the N421SF flight status page for this flight to view local times or setup timezone preferences in your user account.


Time Position Orientation Groundspeed Altitude Reporting Facility
EDT Latitude Longitude Course Direction KTS MPH feet Rate Location/Type
Sun 05:02:10 PM 34.2758 -88.8164 21° North 37 43 9,000  Level Memphis Center
Sun 05:03:10 PM 34.2819 -88.8136 21° North 20 23 9,000 -2,750 Level Memphis Center
Sun 05:04:10 PM 34.2003 -88.7950 169° South 173 199 3,500 -2,350 Descending Memphis Center
Sun 05:05:10 PM 34.1608 -88.7983 184° South 161 185 4,300 947 Climbing Memphis Center
Sun 05:06:23 PM 34.1025 -88.8044 185° South 153 176 5,600 1,125 Climbing Memphis Center
Sun 05:07:18 PM 34.0650 -88.8100 187° South 151 174 6,700 1,009 Climbing Memphis Center
Sun 05:08:10 PM 34.0358 -88.8131 185° South 156 180 7,400 911 Climbing Memphis Center
Sun 05:09:10 PM 33.9919 -88.8114 178° South 161 185 8,400 1,040 Climbing Memphis Center
Sun 05:09:25 PM 33.9794 -88.8142 190° South 153 176 8,700 700 Climbing Memphis Center
Sun 05:10:10 PM 33.9481 -88.8097 173° South 161 185 9,100 393 Climbing Memphis Center
Sun 05:10:26 PM 33.9314 -88.8100 181° South 165 190 9,100 -100 Level Memphis Center
Sun 05:11:10 PM 33.8981 -88.8081 177° South 167 192 9,000 -91 Descending Memphis Center
Sun 05:11:32 PM 33.8731 -88.8111 186° South 188 216 9,000  Level Memphis Center
Sun 05:12:10 PM 33.8458 -88.8089 176° South 178 205 9,000  Level Memphis Center
Sun 05:12:33 PM 33.8228 -88.8069 176° South 185 213 9,000  Level Memphis Center
Sun 05:13:10 PM 33.7956 -88.8050 177° South 183 211 9,000  Level Memphis Center
Sun 05:13:40 PM 33.7644 -88.8056 181° South 185 213 9,000  Level Memphis Center
Sun 05:14:10 PM 33.7433 -88.8033 175° South 183 211 9,000  Level Memphis Center
Sun 05:14:40 PM 33.7142 -88.8014 177° South 185 213 9,000  Level Memphis Center
Sun 05:15:10 PM 33.6892 -88.7994 176° South 183 211 9,000  Level Memphis Center
Sun 05:15:41 PM 33.6619 -88.8022 185° South 188 216 9,000  Level Memphis Center
Sun 05:16:10 PM 33.6389 -88.8003 176° South 199 229 9,000  Level Memphis Center
Sun 05:17:10 PM 33.5847 -88.7986 179° South 204 235 9,000  Level Memphis Center
Sun 05:18:10 PM 33.5367 -88.8019 183° South 196 226 9,000  Level Memphis Center
Sun 05:19:10 PM 33.4844 -88.8006 179° South 196 226 9,000  Level Memphis Center
Sun 05:20:10 PM 33.4325 -88.7989 178° South 191 220 9,000  Level Memphis Center
Sun 05:21:10 PM 33.3803 -88.7950 176° South 191 220 9,000  Level Memphis Center
Sun 05:22:10 PM 33.3278 -88.7908 176° South 191 220 9,000  Level Memphis Center
Sun 05:23:10 PM 33.2758 -88.7919 181° South 196 226 9,000  Level Memphis Center
Sun 05:24:10 PM 33.2236 -88.7878 176° South 196 226 9,000  Level Memphis Center
Sun 05:25:10 PM 33.1714 -88.7861 178° South 196 226 9,000  Level Memphis Center
Sun 05:26:10 PM 33.1211 -88.7872 181° South 196 226 9,000  Level Memphis Center
Sun 05:27:10 PM 33.0689 -88.7856 178° South 196 226 9,000  Level Memphis Center
Sun 05:28:10 PM 33.0167 -88.7817 176° South 196 226 9,000 -300 Level Memphis Center
Sun 05:29:10 PM 32.9644 -88.7800 178° South 196 226 8,400 -550 Descending Memphis Center
Sun 05:30:10 PM 32.9081 -88.7786 179° South 196 226 7,900 -550 Descending Memphis Center
Sun 05:31:10 PM 32.8517 -88.7769 179° South 196 226 7,300 -550 Descending Memphis Center
Sun 05:32:10 PM 32.7953 -88.7731 177° South 201 231 6,800 -550 Descending Memphis Center
Sun 05:33:10 PM 32.7369 -88.7692 177° South 201 231 6,200 -800 Descending Memphis Center
Sun 05:34:10 PM 32.6806 -88.7703 181° South 201 231 5,200 -950 Descending Memphis Center
Sun 05:35:10 PM 32.6219 -88.7689 179° South 206 237 4,300 -750 Descending Memphis Center
Sun 05:36:10 PM 32.5678 -88.7697 181° South 206 237 3,700 -600 Descending Memphis Center
Sun 05:37:10 PM 32.5114 -88.7708 181° South 206 237 3,100 -550 Descending Memphis Center
Sun 05:38:10 PM 32.4489 -88.7719 181° South 206 237 2,600 -500 Descending Memphis Center

Login

Don't have an account? Register now (free) for customized features, flight alerts, and more!